sensor_id;sensor_type;location;lat;lon;timestamp;P1;durP1;ratioP1;P2;durP2;ratioP2
4738;SDS011;2383;48.632;10.156;2023-07-16T00:00:10;29.92;;;23.35;;
4738;SDS011;2383;48.632;10.156;2023-07-16T00:04:12;11.25;;;8.50;;
4738;SDS011;2383;48.632;10.156;2023-07-16T00:08:14;8.75;;;5.75;;
4738;SDS011;2383;48.632;10.156;2023-07-16T00:12:16;9.15;;;5.90;;
4738;SDS011;2383;48.632;10.156;2023-07-16T00:16:18;8.80;;;5.72;;
4738;SDS011;2383;48.632;10.156;2023-07-16T00:20:20;7.88;;;5.30;;
4738;SDS011;2383;48.632;10.156;2023-07-16T00:24:24;6.47;;;4.70;;
4738;SDS011;2383;48.632;10.156;2023-07-16T00:28:26;7.85;;;4.88;;
4738;SDS011;2383;48.632;10.156;2023-07-16T00:32:28;8.77;;;4.75;;
4738;SDS011;2383;48.632;10.156;2023-07-16T00:36:30;6.30;;;4.70;;
4738;SDS011;2383;48.632;10.156;2023-07-16T00:40:33;7.13;;;4.60;;
4738;SDS011;2383;48.632;10.156;2023-07-16T00:44:34;4.60;;;4.13;;
4738;SDS011;2383;48.632;10.156;2023-07-16T00:48:37;6.05;;;4.10;;
4738;SDS011;2383;48.632;10.156;2023-07-16T00:52:39;4.90;;;3.22;;
4738;SDS011;2383;48.632;10.156;2023-07-16T00:56:42;4.20;;;2.92;;
4738;SDS011;2383;48.632;10.156;2023-07-16T01:00:44;3.83;;;2.50;;
4738;SDS011;2383;48.632;10.156;2023-07-16T01:04:46;2.40;;;1.90;;
4738;SDS011;2383;48.632;10.156;2023-07-16T01:13:03;1.58;;;1.48;;
4738;SDS011;2383;48.632;10.156;2023-07-16T01:17:05;1.75;;;1.30;;
4738;SDS011;2383;48.632;10.156;2023-07-16T01:21:08;1.30;;;1.20;;
4738;SDS011;2383;48.632;10.156;2023-07-16T01:29:41;1.00;;;0.90;;
4738;SDS011;2383;48.632;10.156;2023-07-16T01:33:54;1.65;;;1.00;;
4738;SDS011;2383;48.632;10.156;2023-07-16T01:37:58;1.17;;;0.80;;
4738;SDS011;2383;48.632;10.156;2023-07-16T01:42:00;1.02;;;0.93;;
4738;SDS011;2383;48.632;10.156;2023-07-16T01:46:02;1.10;;;1.00;;
4738;SDS011;2383;48.632;10.156;2023-07-16T01:50:04;1.15;;;1.00;;
4738;SDS011;2383;48.632;10.156;2023-07-16T01:54:06;1.63;;;1.20;;
4738;SDS011;2383;48.632;10.156;2023-07-16T01:58:08;0.93;;;0.82;;
4738;SDS011;2383;48.632;10.156;2023-07-16T02:02:11;1.02;;;0.93;;
4738;SDS011;2383;48.632;10.156;2023-07-16T02:06:13;1.08;;;1.00;;
4738;SDS011;2383;48.632;10.156;2023-07-16T02:10:16;1.83;;;1.10;;
4738;SDS011;2383;48.632;10.156;2023-07-16T02:14:21;1.05;;;1.00;;
4738;SDS011;2383;48.632;10.156;2023-07-16T02:18:23;1.48;;;1.10;;
4738;SDS011;2383;48.632;10.156;2023-07-16T02:22:25;2.92;;;1.23;;
4738;SDS011;2383;48.632;10.156;2023-07-16T02:26:27;2.25;;;1.10;;
4738;SDS011;2383;48.632;10.156;2023-07-16T02:30:29;2.38;;;1.10;;
4738;SDS011;2383;48.632;10.156;2023-07-16T02:34:31;3.53;;;1.20;;
4738;SDS011;2383;48.632;10.156;2023-07-16T02:38:35;1.67;;;1.10;;
4738;SDS011;2383;48.632;10.156;2023-07-16T02:42:37;1.17;;;1.08;;
4738;SDS011;2383;48.632;10.156;2023-07-16T02:46:39;1.90;;;1.50;;
4738;SDS011;2383;48.632;10.156;2023-07-16T02:50:43;2.53;;;1.17;;
4738;SDS011;2383;48.632;10.156;2023-07-16T02:54:45;1.90;;;1.45;;
4738;SDS011;2383;48.632;10.156;2023-07-16T02:58:47;1.45;;;1.10;;
4738;SDS011;2383;48.632;10.156;2023-07-16T03:02:49;1.20;;;1.10;;
4738;SDS011;2383;48.632;10.156;2023-07-16T03:06:51;2.42;;;1.40;;
4738;SDS011;2383;48.632;10.156;2023-07-16T03:10:56;2.05;;;1.52;;
4738;SDS011;2383;48.632;10.156;2023-07-16T03:15:00;1.77;;;1.63;;
4738;SDS011;2383;48.632;10.156;2023-07-16T03:19:02;1.80;;;1.10;;
4738;SDS011;2383;48.632;10.156;2023-07-16T03:23:05;2.75;;;1.23;;
4738;SDS011;2383;48.632;10.156;2023-07-16T03:27:07;1.20;;;1.13;;
4738;SDS011;2383;48.632;10.156;2023-07-16T03:31:20;1.60;;;1.25;;
4738;SDS011;2383;48.632;10.156;2023-07-16T03:35:23;4.03;;;1.20;;
4738;SDS011;2383;48.632;10.156;2023-07-16T03:39:27;10.60;;;1.30;;
4738;SDS011;2383;48.632;10.156;2023-07-16T03:43:29;1.63;;;1.10;;
4738;SDS011;2383;48.632;10.156;2023-07-16T03:47:39;3.72;;;1.63;;
4738;SDS011;2383;48.632;10.156;2023-07-16T03:51:41;2.70;;;1.30;;
4738;SDS011;2383;48.632;10.156;2023-07-16T03:55:44;1.58;;;1.33;;
4738;SDS011;2383;48.632;10.156;2023-07-16T03:59:46;1.75;;;1.35;;
4738;SDS011;2383;48.632;10.156;2023-07-16T04:03:48;2.42;;;1.20;;
4738;SDS011;2383;48.632;10.156;2023-07-16T04:07:50;1.98;;;1.35;;
4738;SDS011;2383;48.632;10.156;2023-07-16T04:11:53;2.40;;;1.23;;
4738;SDS011;2383;48.632;10.156;2023-07-16T04:15:55;1.50;;;1.30;;
4738;SDS011;2383;48.632;10.156;2023-07-16T04:19:58;1.90;;;1.50;;
4738;SDS011;2383;48.632;10.156;2023-07-16T04:24:03;2.58;;;1.63;;
4738;SDS011;2383;48.632;10.156;2023-07-16T04:28:06;1.88;;;1.20;;
4738;SDS011;2383;48.632;10.156;2023-07-16T04:32:08;2.45;;;1.40;;
4738;SDS011;2383;48.632;10.156;2023-07-16T04:36:11;2.25;;;1.40;;
4738;SDS011;2383;48.632;10.156;2023-07-16T04:40:14;2.30;;;1.50;;
4738;SDS011;2383;48.632;10.156;2023-07-16T04:44:16;3.38;;;1.35;;
4738;SDS011;2383;48.632;10.156;2023-07-16T04:48:18;1.33;;;1.23;;
4738;SDS011;2383;48.632;10.156;2023-07-16T04:52:20;1.73;;;1.50;;
4738;SDS011;2383;48.632;10.156;2023-07-16T04:56:22;3.25;;;1.40;;
4738;SDS011;2383;48.632;10.156;2023-07-16T05:00:24;2.38;;;1.70;;
4738;SDS011;2383;48.632;10.156;2023-07-16T05:04:26;2.08;;;1.50;;
4738;SDS011;2383;48.632;10.156;2023-07-16T05:08:28;1.85;;;1.33;;
4738;SDS011;2383;48.632;10.156;2023-07-16T05:12:31;3.83;;;1.70;;
4738;SDS011;2383;48.632;10.156;2023-07-16T05:16:33;3.72;;;1.85;;
4738;SDS011;2383;48.632;10.156;2023-07-16T05:20:35;2.20;;;1.60;;
4738;SDS011;2383;48.632;10.156;2023-07-16T05:24:37;2.42;;;1.58;;
4738;SDS011;2383;48.632;10.156;2023-07-16T05:28:39;3.13;;;1.50;;
4738;SDS011;2383;48.632;10.156;2023-07-16T05:32:41;2.30;;;1.48;;
4738;SDS011;2383;48.632;10.156;2023-07-16T05:36:43;4.90;;;1.85;;
4738;SDS011;2383;48.632;10.156;2023-07-16T05:40:48;2.15;;;1.50;;
4738;SDS011;2383;48.632;10.156;2023-07-16T05:44:50;3.72;;;1.95;;
4738;SDS011;2383;48.632;10.156;2023-07-16T05:48:52;3.85;;;1.80;;
4738;SDS011;2383;48.632;10.156;2023-07-16T05:52:54;2.60;;;1.45;;
4738;SDS011;2383;48.632;10.156;2023-07-16T05:56:56;4.85;;;1.77;;
4738;SDS011;2383;48.632;10.156;2023-07-16T06:00:58;3.88;;;1.40;;
4738;SDS011;2383;48.632;10.156;2023-07-16T06:05:00;1.75;;;1.38;;
4738;SDS011;2383;48.632;10.156;2023-07-16T06:09:02;3.47;;;1.50;;
4738;SDS011;2383;48.632;10.156;2023-07-16T06:13:04;3.45;;;1.83;;
4738;SDS011;2383;48.632;10.156;2023-07-16T06:17:06;1.38;;;1.27;;
4738;SDS011;2383;48.632;10.156;2023-07-16T06:21:08;2.40;;;1.33;;
4738;SDS011;2383;48.632;10.156;2023-07-16T06:25:10;3.72;;;1.80;;
4738;SDS011;2383;48.632;10.156;2023-07-16T06:29:13;2.47;;;1.65;;
4738;SDS011;2383;48.632;10.156;2023-07-16T06:33:15;2.80;;;1.40;;
4738;SDS011;2383;48.632;10.156;2023-07-16T06:37:17;4.22;;;1.60;;
4738;SDS011;2383;48.632;10.156;2023-07-16T06:41:19;2.47;;;1.40;;
4738;SDS011;2383;48.632;10.156;2023-07-16T06:45:21;1.60;;;1.45;;
4738;SDS011;2383;48.632;10.156;2023-07-16T06:49:23;2.80;;;1.70;;
4738;SDS011;2383;48.632;10.156;2023-07-16T06:53:25;1.70;;;1.58;;
4738;SDS011;2383;48.632;10.156;2023-07-16T06:57:27;2.47;;;1.65;;
4738;SDS011;2383;48.632;10.156;2023-07-16T07:01:29;3.85;;;1.42;;
4738;SDS011;2383;48.632;10.156;2023-07-16T07:05:31;2.78;;;1.75;;
4738;SDS011;2383;48.632;10.156;2023-07-16T07:09:34;2.92;;;1.70;;
4738;SDS011;2383;48.632;10.156;2023-07-16T07:13:36;1.88;;;1.77;;
4738;SDS011;2383;48.632;10.156;2023-07-16T07:17:38;6.97;;;1.80;;
4738;SDS011;2383;48.632;10.156;2023-07-16T07:21:41;2.72;;;1.70;;
4738;SDS011;2383;48.632;10.156;2023-07-16T07:25:43;2.75;;;1.45;;
4738;SDS011;2383;48.632;10.156;2023-07-16T07:29:51;3.95;;;1.77;;
4738;SDS011;2383;48.632;10.156;2023-07-16T07:33:53;2.03;;;1.75;;
4738;SDS011;2383;48.632;10.156;2023-07-16T07:37:55;2.03;;;1.27;;
4738;SDS011;2383;48.632;10.156;2023-07-16T07:41:57;2.60;;;1.67;;
4738;SDS011;2383;48.632;10.156;2023-07-16T07:45:59;3.63;;;1.73;;
4738;SDS011;2383;48.632;10.156;2023-07-16T07:50:01;4.63;;;1.80;;
4738;SDS011;2383;48.632;10.156;2023-07-16T07:54:03;2.13;;;1.83;;
4738;SDS011;2383;48.632;10.156;2023-07-16T07:58:07;2.25;;;1.70;;
4738;SDS011;2383;48.632;10.156;2023-07-16T08:02:09;2.17;;;1.70;;
4738;SDS011;2383;48.632;10.156;2023-07-16T08:06:11;4.43;;;2.10;;
4738;SDS011;2383;48.632;10.156;2023-07-16T08:10:14;3.42;;;1.73;;
4738;SDS011;2383;48.632;10.156;2023-07-16T08:14:16;2.28;;;1.98;;
4738;SDS011;2383;48.632;10.156;2023-07-16T08:18:18;3.22;;;2.28;;
4738;SDS011;2383;48.632;10.156;2023-07-16T08:22:20;6.88;;;2.13;;
4738;SDS011;2383;48.632;10.156;2023-07-16T08:26:23;5.25;;;1.88;;
4738;SDS011;2383;48.632;10.156;2023-07-16T08:30:25;3.10;;;2.10;;
4738;SDS011;2383;48.632;10.156;2023-07-16T08:34:27;2.15;;;1.70;;
4738;SDS011;2383;48.632;10.156;2023-07-16T08:38:29;3.17;;;1.70;;
4738;SDS011;2383;48.632;10.156;2023-07-16T08:42:31;3.35;;;1.60;;
4738;SDS011;2383;48.632;10.156;2023-07-16T08:46:33;1.70;;;1.60;;
4738;SDS011;2383;48.632;10.156;2023-07-16T08:50:35;2.75;;;1.85;;
4738;SDS011;2383;48.632;10.156;2023-07-16T08:54:38;4.93;;;2.00;;
4738;SDS011;2383;48.632;10.156;2023-07-16T08:58:40;5.18;;;1.90;;
4738;SDS011;2383;48.632;10.156;2023-07-16T09:02:46;3.40;;;1.70;;
4738;SDS011;2383;48.632;10.156;2023-07-16T09:06:49;3.88;;;1.98;;
4738;SDS011;2383;48.632;10.156;2023-07-16T09:10:54;4.00;;;1.92;;
4738;SDS011;2383;48.632;10.156;2023-07-16T09:14:57;4.07;;;2.05;;
4738;SDS011;2383;48.632;10.156;2023-07-16T09:19:06;5.03;;;1.83;;
4738;SDS011;2383;48.632;10.156;2023-07-16T09:23:11;4.57;;;2.10;;
4738;SDS011;2383;48.632;10.156;2023-07-16T09:27:14;5.53;;;2.03;;
4738;SDS011;2383;48.632;10.156;2023-07-16T09:31:16;4.32;;;1.90;;
4738;SDS011;2383;48.632;10.156;2023-07-16T09:35:18;3.90;;;1.90;;
4738;SDS011;2383;48.632;10.156;2023-07-16T09:39:20;6.53;;;2.28;;
4738;SDS011;2383;48.632;10.156;2023-07-16T09:43:23;7.35;;;2.08;;
4738;SDS011;2383;48.632;10.156;2023-07-16T09:47:25;3.85;;;1.73;;
4738;SDS011;2383;48.632;10.156;2023-07-16T09:51:27;4.00;;;2.17;;
4738;SDS011;2383;48.632;10.156;2023-07-16T09:55:34;5.78;;;2.30;;
4738;SDS011;2383;48.632;10.156;2023-07-16T09:59:37;4.43;;;1.98;;
4738;SDS011;2383;48.632;10.156;2023-07-16T10:03:48;4.70;;;2.35;;
4738;SDS011;2383;48.632;10.156;2023-07-16T10:07:52;5.85;;;2.38;;
4738;SDS011;2383;48.632;10.156;2023-07-16T10:12:13;3.33;;;2.05;;
4738;SDS011;2383;48.632;10.156;2023-07-16T10:16:19;3.95;;;1.75;;
4738;SDS011;2383;48.632;10.156;2023-07-16T10:20:30;4.45;;;1.73;;
4738;SDS011;2383;48.632;10.156;2023-07-16T10:24:33;3.88;;;1.85;;
4738;SDS011;2383;48.632;10.156;2023-07-16T10:28:40;2.72;;;1.90;;
4738;SDS011;2383;48.632;10.156;2023-07-16T10:32:42;3.28;;;1.65;;
4738;SDS011;2383;48.632;10.156;2023-07-16T10:36:45;4.97;;;2.47;;
4738;SDS011;2383;48.632;10.156;2023-07-16T10:40:47;4.35;;;1.77;;
4738;SDS011;2383;48.632;10.156;2023-07-16T10:44:52;3.90;;;1.70;;
4738;SDS011;2383;48.632;10.156;2023-07-16T10:48:55;3.55;;;1.80;;
4738;SDS011;2383;48.632;10.156;2023-07-16T10:52:57;2.53;;;1.85;;
4738;SDS011;2383;48.632;10.156;2023-07-16T10:56:59;5.38;;;1.70;;
4738;SDS011;2383;48.632;10.156;2023-07-16T11:01:01;4.95;;;1.45;;
4738;SDS011;2383;48.632;10.156;2023-07-16T11:05:03;2.58;;;1.65;;
4738;SDS011;2383;48.632;10.156;2023-07-16T11:09:06;5.47;;;1.90;;
4738;SDS011;2383;48.632;10.156;2023-07-16T11:13:11;3.17;;;1.52;;
4738;SDS011;2383;48.632;10.156;2023-07-16T11:17:13;3.28;;;1.52;;
4738;SDS011;2383;48.632;10.156;2023-07-16T11:21:18;2.55;;;1.77;;
4738;SDS011;2383;48.632;10.156;2023-07-16T11:25:23;2.85;;;1.50;;
4738;SDS011;2383;48.632;10.156;2023-07-16T11:29:25;3.60;;;1.80;;
4738;SDS011;2383;48.632;10.156;2023-07-16T11:33:34;2.75;;;1.83;;
4738;SDS011;2383;48.632;10.156;2023-07-16T11:37:37;4.25;;;1.95;;
4738;SDS011;2383;48.632;10.156;2023-07-16T11:41:42;4.20;;;2.05;;
4738;SDS011;2383;48.632;10.156;2023-07-16T11:45:58;2.72;;;1.60;;
4738;SDS011;2383;48.632;10.156;2023-07-16T11:50:00;2.50;;;1.50;;
4738;SDS011;2383;48.632;10.156;2023-07-16T11:54:02;2.63;;;1.60;;
4738;SDS011;2383;48.632;10.156;2023-07-16T11:58:04;1.60;;;1.48;;
4738;SDS011;2383;48.632;10.156;2023-07-16T12:02:06;2.42;;;1.52;;
4738;SDS011;2383;48.632;10.156;2023-07-16T12:06:08;3.88;;;2.10;;
4738;SDS011;2383;48.632;10.156;2023-07-16T12:10:10;2.22;;;1.77;;
4738;SDS011;2383;48.632;10.156;2023-07-16T12:14:12;3.75;;;2.00;;
4738;SDS011;2383;48.632;10.156;2023-07-16T12:18:14;4.72;;;1.83;;
4738;SDS011;2383;48.632;10.156;2023-07-16T12:22:17;2.90;;;1.77;;
4738;SDS011;2383;48.632;10.156;2023-07-16T12:26:19;4.85;;;1.90;;
4738;SDS011;2383;48.632;10.156;2023-07-16T12:30:21;2.08;;;1.65;;
4738;SDS011;2383;48.632;10.156;2023-07-16T12:34:23;2.45;;;1.98;;
4738;SDS011;2383;48.632;10.156;2023-07-16T12:38:25;3.70;;;1.92;;
4738;SDS011;2383;48.632;10.156;2023-07-16T12:42:27;4.20;;;1.70;;
4738;SDS011;2383;48.632;10.156;2023-07-16T12:46:30;2.67;;;1.92;;
4738;SDS011;2383;48.632;10.156;2023-07-16T12:50:32;3.80;;;2.13;;
4738;SDS011;2383;48.632;10.156;2023-07-16T12:54:34;3.08;;;1.98;;
4738;SDS011;2383;48.632;10.156;2023-07-16T12:58:36;3.13;;;2.03;;
4738;SDS011;2383;48.632;10.156;2023-07-16T13:02:38;2.90;;;1.70;;
4738;SDS011;2383;48.632;10.156;2023-07-16T13:06:40;3.33;;;2.05;;
4738;SDS011;2383;48.632;10.156;2023-07-16T13:10:43;3.03;;;1.73;;
4738;SDS011;2383;48.632;10.156;2023-07-16T13:14:45;6.32;;;1.95;;
4738;SDS011;2383;48.632;10.156;2023-07-16T13:18:47;3.17;;;1.88;;
4738;SDS011;2383;48.632;10.156;2023-07-16T13:22:49;3.20;;;2.08;;
4738;SDS011;2383;48.632;10.156;2023-07-16T13:26:52;3.20;;;2.17;;
4738;SDS011;2383;48.632;10.156;2023-07-16T13:30:54;3.63;;;2.00;;
4738;SDS011;2383;48.632;10.156;2023-07-16T13:34:57;2.35;;;1.85;;
4738;SDS011;2383;48.632;10.156;2023-07-16T13:38:59;4.38;;;1.77;;
4738;SDS011;2383;48.632;10.156;2023-07-16T13:43:04;2.80;;;2.00;;
4738;SDS011;2383;48.632;10.156;2023-07-16T13:47:06;2.10;;;1.85;;
4738;SDS011;2383;48.632;10.156;2023-07-16T13:51:09;4.20;;;2.10;;
4738;SDS011;2383;48.632;10.156;2023-07-16T13:55:11;3.33;;;2.00;;
4738;SDS011;2383;48.632;10.156;2023-07-16T13:59:13;2.80;;;2.10;;
4738;SDS011;2383;48.632;10.156;2023-07-16T14:03:15;2.60;;;2.03;;
4738;SDS011;2383;48.632;10.156;2023-07-16T14:07:17;4.18;;;2.42;;
4738;SDS011;2383;48.632;10.156;2023-07-16T14:11:20;2.53;;;1.70;;
4738;SDS011;2383;48.632;10.156;2023-07-16T14:15:23;4.47;;;2.15;;
4738;SDS011;2383;48.632;10.156;2023-07-16T14:19:25;4.07;;;2.13;;
4738;SDS011;2383;48.632;10.156;2023-07-16T14:23:29;3.63;;;2.55;;
4738;SDS011;2383;48.632;10.156;2023-07-16T14:27:32;3.53;;;1.90;;
4738;SDS011;2383;48.632;10.156;2023-07-16T14:31:34;2.40;;;1.80;;
4738;SDS011;2383;48.632;10.156;2023-07-16T14:35:36;3.28;;;2.00;;
4738;SDS011;2383;48.632;10.156;2023-07-16T14:39:39;4.25;;;2.10;;
4738;SDS011;2383;48.632;10.156;2023-07-16T14:43:41;4.22;;;2.03;;
4738;SDS011;2383;48.632;10.156;2023-07-16T14:47:43;3.75;;;2.20;;
4738;SDS011;2383;48.632;10.156;2023-07-16T14:51:45;3.15;;;2.25;;
4738;SDS011;2383;48.632;10.156;2023-07-16T14:55:50;4.78;;;2.10;;
4738;SDS011;2383;48.632;10.156;2023-07-16T14:59:53;2.15;;;1.92;;
4738;SDS011;2383;48.632;10.156;2023-07-16T15:03:55;5.22;;;2.03;;
4738;SDS011;2383;48.632;10.156;2023-07-16T15:07:57;4.75;;;2.10;;
4738;SDS011;2383;48.632;10.156;2023-07-16T15:11:59;4.13;;;2.13;;
4738;SDS011;2383;48.632;10.156;2023-07-16T15:16:01;2.50;;;1.92;;
4738;SDS011;2383;48.632;10.156;2023-07-16T15:20:05;3.05;;;1.80;;
4738;SDS011;2383;48.632;10.156;2023-07-16T15:24:08;3.83;;;1.95;;
4738;SDS011;2383;48.632;10.156;2023-07-16T15:28:10;4.85;;;2.05;;
4738;SDS011;2383;48.632;10.156;2023-07-16T15:32:15;4.47;;;2.40;;
4738;SDS011;2383;48.632;10.156;2023-07-16T15:36:17;3.08;;;2.00;;
4738;SDS011;2383;48.632;10.156;2023-07-16T15:40:19;2.78;;;1.83;;
4738;SDS011;2383;48.632;10.156;2023-07-16T15:44:22;4.85;;;2.17;;
4738;SDS011;2383;48.632;10.156;2023-07-16T15:48:24;2.40;;;1.90;;
4738;SDS011;2383;48.632;10.156;2023-07-16T15:52:26;3.60;;;1.90;;
4738;SDS011;2383;48.632;10.156;2023-07-16T15:56:34;3.67;;;1.80;;
4738;SDS011;2383;48.632;10.156;2023-07-16T16:00:36;4.85;;;2.00;;
4738;SDS011;2383;48.632;10.156;2023-07-16T16:04:38;3.83;;;2.35;;
4738;SDS011;2383;48.632;10.156;2023-07-16T16:08:40;3.20;;;2.20;;
4738;SDS011;2383;48.632;10.156;2023-07-16T16:12:42;2.17;;;2.00;;
4738;SDS011;2383;48.632;10.156;2023-07-16T16:16:44;3.00;;;2.22;;
4738;SDS011;2383;48.632;10.156;2023-07-16T16:21:06;2.50;;;2.10;;
4738;SDS011;2383;48.632;10.156;2023-07-16T16:25:08;2.60;;;2.08;;
4738;SDS011;2383;48.632;10.156;2023-07-16T16:29:10;2.92;;;2.13;;
4738;SDS011;2383;48.632;10.156;2023-07-16T16:33:12;3.42;;;2.40;;
4738;SDS011;2383;48.632;10.156;2023-07-16T16:37:15;3.28;;;1.90;;
4738;SDS011;2383;48.632;10.156;2023-07-16T16:41:17;3.47;;;2.65;;
4738;SDS011;2383;48.632;10.156;2023-07-16T16:45:20;5.05;;;2.10;;
4738;SDS011;2383;48.632;10.156;2023-07-16T16:49:22;3.17;;;2.05;;
4738;SDS011;2383;48.632;10.156;2023-07-16T16:53:24;2.78;;;2.33;;
4738;SDS011;2383;48.632;10.156;2023-07-16T16:57:26;3.50;;;2.30;;
4738;SDS011;2383;48.632;10.156;2023-07-16T17:01:28;3.00;;;2.22;;
4738;SDS011;2383;48.632;10.156;2023-07-16T17:05:30;2.50;;;2.28;;
4738;SDS011;2383;48.632;10.156;2023-07-16T17:09:33;2.85;;;2.08;;
4738;SDS011;2383;48.632;10.156;2023-07-16T17:13:35;2.33;;;2.13;;
4738;SDS011;2383;48.632;10.156;2023-07-16T17:17:37;2.55;;;2.20;;
4738;SDS011;2383;48.632;10.156;2023-07-16T17:21:41;2.90;;;2.30;;
4738;SDS011;2383;48.632;10.156;2023-07-16T17:25:44;4.07;;;2.00;;
4738;SDS011;2383;48.632;10.156;2023-07-16T17:29:46;2.80;;;2.25;;
4738;SDS011;2383;48.632;10.156;2023-07-16T17:33:49;3.10;;;2.13;;
4738;SDS011;2383;48.632;10.156;2023-07-16T17:37:51;5.82;;;3.03;;
4738;SDS011;2383;48.632;10.156;2023-07-16T17:41:56;2.90;;;2.45;;
4738;SDS011;2383;48.632;10.156;2023-07-16T17:45:58;6.03;;;2.80;;
4738;SDS011;2383;48.632;10.156;2023-07-16T17:50:02;4.28;;;2.28;;
4738;SDS011;2383;48.632;10.156;2023-07-16T17:54:04;2.33;;;2.10;;
4738;SDS011;2383;48.632;10.156;2023-07-16T17:58:06;4.78;;;2.30;;
4738;SDS011;2383;48.632;10.156;2023-07-16T18:02:09;3.70;;;3.08;;
4738;SDS011;2383;48.632;10.156;2023-07-16T18:06:14;4.57;;;3.30;;
4738;SDS011;2383;48.632;10.156;2023-07-16T18:10:16;8.10;;;4.65;;
4738;SDS011;2383;48.632;10.156;2023-07-16T18:14:22;3.33;;;2.60;;
4738;SDS011;2383;48.632;10.156;2023-07-16T18:18:24;2.58;;;2.38;;
4738;SDS011;2383;48.632;10.156;2023-07-16T18:22:26;3.35;;;2.50;;
4738;SDS011;2383;48.632;10.156;2023-07-16T18:26:31;2.63;;;2.10;;
4738;SDS011;2383;48.632;10.156;2023-07-16T18:30:33;4.10;;;2.20;;
4738;SDS011;2383;48.632;10.156;2023-07-16T18:34:35;5.32;;;2.42;;
4738;SDS011;2383;48.632;10.156;2023-07-16T18:38:37;6.95;;;2.40;;
4738;SDS011;2383;48.632;10.156;2023-07-16T18:42:39;4.85;;;2.20;;
4738;SDS011;2383;48.632;10.156;2023-07-16T18:46:42;3.22;;;2.33;;
4738;SDS011;2383;48.632;10.156;2023-07-16T18:50:44;2.80;;;2.47;;
4738;SDS011;2383;48.632;10.156;2023-07-16T18:54:48;2.80;;;2.20;;
4738;SDS011;2383;48.632;10.156;2023-07-16T18:58:50;3.67;;;2.53;;
4738;SDS011;2383;48.632;10.156;2023-07-16T19:02:52;2.65;;;2.40;;
4738;SDS011;2383;48.632;10.156;2023-07-16T19:06:54;3.17;;;2.10;;
4738;SDS011;2383;48.632;10.156;2023-07-16T19:10:57;4.43;;;1.98;;
4738;SDS011;2383;48.632;10.156;2023-07-16T19:14:59;2.88;;;2.10;;
4738;SDS011;2383;48.632;10.156;2023-07-16T19:19:04;2.10;;;1.90;;
4738;SDS011;2383;48.632;10.156;2023-07-16T19:23:06;3.33;;;2.30;;
4738;SDS011;2383;48.632;10.156;2023-07-16T19:27:08;3.90;;;2.45;;
4738;SDS011;2383;48.632;10.156;2023-07-16T19:31:11;3.38;;;2.40;;
4738;SDS011;2383;48.632;10.156;2023-07-16T19:35:13;4.72;;;2.30;;
4738;SDS011;2383;48.632;10.156;2023-07-16T19:39:15;2.88;;;2.17;;
4738;SDS011;2383;48.632;10.156;2023-07-16T19:43:18;3.25;;;2.67;;
4738;SDS011;2383;48.632;10.156;2023-07-16T19:47:20;4.10;;;2.80;;
4738;SDS011;2383;48.632;10.156;2023-07-16T19:51:22;3.30;;;2.70;;
4738;SDS011;2383;48.632;10.156;2023-07-16T19:55:23;5.70;;;3.40;;
4738;SDS011;2383;48.632;10.156;2023-07-16T19:59:25;38.25;;;27.75;;
4738;SDS011;2383;48.632;10.156;2023-07-16T20:03:27;37.70;;;29.77;;
4738;SDS011;2383;48.632;10.156;2023-07-16T20:07:29;5.28;;;2.38;;
4738;SDS011;2383;48.632;10.156;2023-07-16T20:11:36;4.47;;;2.53;;
4738;SDS011;2383;48.632;10.156;2023-07-16T20:15:38;4.57;;;2.50;;
4738;SDS011;2383;48.632;10.156;2023-07-16T20:19:41;5.97;;;2.95;;
4738;SDS011;2383;48.632;10.156;2023-07-16T20:23:43;4.43;;;2.65;;
4738;SDS011;2383;48.632;10.156;2023-07-16T20:27:45;2.78;;;2.58;;
4738;SDS011;2383;48.632;10.156;2023-07-16T20:31:54;3.05;;;2.78;;
4738;SDS011;2383;48.632;10.156;2023-07-16T20:35:56;5.25;;;2.92;;
4738;SDS011;2383;48.632;10.156;2023-07-16T20:39:58;4.60;;;2.80;;
4738;SDS011;2383;48.632;10.156;2023-07-16T20:44:00;4.97;;;2.80;;
4738;SDS011;2383;48.632;10.156;2023-07-16T20:48:02;5.38;;;2.85;;
4738;SDS011;2383;48.632;10.156;2023-07-16T20:52:06;3.67;;;2.83;;
4738;SDS011;2383;48.632;10.156;2023-07-16T20:56:08;3.13;;;2.83;;
4738;SDS011;2383;48.632;10.156;2023-07-16T21:00:11;3.22;;;2.65;;
4738;SDS011;2383;48.632;10.156;2023-07-16T21:04:26;3.78;;;2.60;;
4738;SDS011;2383;48.632;10.156;2023-07-16T21:08:28;2.83;;;2.50;;
4738;SDS011;2383;48.632;10.156;2023-07-16T21:12:30;5.22;;;2.55;;
4738;SDS011;2383;48.632;10.156;2023-07-16T21:16:32;6.72;;;2.72;;
4738;SDS011;2383;48.632;10.156;2023-07-16T21:20:35;6.28;;;2.97;;
4738;SDS011;2383;48.632;10.156;2023-07-16T21:24:41;5.60;;;2.85;;
4738;SDS011;2383;48.632;10.156;2023-07-16T21:28:43;4.18;;;2.83;;
4738;SDS011;2383;48.632;10.156;2023-07-16T21:32:45;7.35;;;3.08;;
4738;SDS011;2383;48.632;10.156;2023-07-16T21:36:48;3.63;;;2.67;;
4738;SDS011;2383;48.632;10.156;2023-07-16T21:40:50;2.58;;;2.38;;
4738;SDS011;2383;48.632;10.156;2023-07-16T21:44:52;4.45;;;3.08;;
4738;SDS011;2383;48.632;10.156;2023-07-16T21:48:54;3.50;;;3.10;;
4738;SDS011;2383;48.632;10.156;2023-07-16T21:52:58;4.32;;;2.92;;
4738;SDS011;2383;48.632;10.156;2023-07-16T21:57:01;4.53;;;3.05;;
4738;SDS011;2383;48.632;10.156;2023-07-16T22:01:05;7.25;;;3.05;;
4738;SDS011;2383;48.632;10.156;2023-07-16T22:05:09;3.67;;;3.10;;
4738;SDS011;2383;48.632;10.156;2023-07-16T22:09:11;5.57;;;3.10;;
4738;SDS011;2383;48.632;10.156;2023-07-16T22:13:13;13.13;;;8.13;;
4738;SDS011;2383;48.632;10.156;2023-07-16T22:17:15;9.65;;;3.55;;
4738;SDS011;2383;48.632;10.156;2023-07-16T22:21:17;4.07;;;2.80;;
4738;SDS011;2383;48.632;10.156;2023-07-16T22:25:21;3.97;;;2.83;;
4738;SDS011;2383;48.632;10.156;2023-07-16T22:29:24;8.82;;;3.20;;
4738;SDS011;2383;48.632;10.156;2023-07-16T22:33:26;3.78;;;3.05;;
4738;SDS011;2383;48.632;10.156;2023-07-16T22:37:28;6.10;;;3.00;;
4738;SDS011;2383;48.632;10.156;2023-07-16T22:41:30;6.00;;;3.38;;
4738;SDS011;2383;48.632;10.156;2023-07-16T22:45:31;6.32;;;3.00;;
4738;SDS011;2383;48.632;10.156;2023-07-16T22:49:36;8.63;;;3.10;;
4738;SDS011;2383;48.632;10.156;2023-07-16T22:53:38;4.15;;;2.90;;
4738;SDS011;2383;48.632;10.156;2023-07-16T22:57:42;6.13;;;3.03;;
4738;SDS011;2383;48.632;10.156;2023-07-16T23:01:44;5.75;;;2.90;;
4738;SDS011;2383;48.632;10.156;2023-07-16T23:05:46;6.40;;;2.97;;
4738;SDS011;2383;48.632;10.156;2023-07-16T23:09:48;5.15;;;2.95;;
4738;SDS011;2383;48.632;10.156;2023-07-16T23:13:50;5.55;;;3.05;;
4738;SDS011;2383;48.632;10.156;2023-07-16T23:17:52;5.18;;;3.17;;
4738;SDS011;2383;48.632;10.156;2023-07-16T23:21:54;5.38;;;3.08;;
4738;SDS011;2383;48.632;10.156;2023-07-16T23:25:56;4.95;;;3.08;;
4738;SDS011;2383;48.632;10.156;2023-07-16T23:29:58;10.63;;;3.03;;
4738;SDS011;2383;48.632;10.156;2023-07-16T23:34:00;6.15;;;3.38;;
4738;SDS011;2383;48.632;10.156;2023-07-16T23:38:02;4.30;;;2.60;;
4738;SDS011;2383;48.632;10.156;2023-07-16T23:42:04;4.38;;;2.92;;
4738;SDS011;2383;48.632;10.156;2023-07-16T23:46:07;7.72;;;3.08;;
4738;SDS011;2383;48.632;10.156;2023-07-16T23:50:09;6.28;;;2.78;;
4738;SDS011;2383;48.632;10.156;2023-07-16T23:54:11;5.43;;;3.15;;
4738;SDS011;2383;48.632;10.156;2023-07-16T23:58:23;5.65;;;2.90;;
